sensor_id;sensor_type;location;lat;lon;timestamp;P1;durP1;ratioP1;P2;durP2;ratioP2
8714;SDS011;4394;51.208;8.904;2024-02-04T00:01:43;5.23;;;3.97;;
8714;SDS011;4394;51.208;8.904;2024-02-04T00:04:31;4.97;;;4.13;;
8714;SDS011;4394;51.208;8.904;2024-02-04T00:07:21;4.27;;;3.53;;
8714;SDS011;4394;51.208;8.904;2024-02-04T00:10:09;5.57;;;3.60;;
8714;SDS011;4394;51.208;8.904;2024-02-04T00:12:57;5.83;;;3.93;;
8714;SDS011;4394;51.208;8.904;2024-02-04T00:15:46;5.10;;;3.63;;
8714;SDS011;4394;51.208;8.904;2024-02-04T00:18:35;4.57;;;3.20;;
8714;SDS011;4394;51.208;8.904;2024-02-04T00:21:24;4.87;;;3.57;;
8714;SDS011;4394;51.208;8.904;2024-02-04T00:24:12;4.67;;;3.90;;
8714;SDS011;4394;51.208;8.904;2024-02-04T00:27:00;4.87;;;3.50;;
8714;SDS011;4394;51.208;8.904;2024-02-04T00:29:49;5.07;;;3.40;;
8714;SDS011;4394;51.208;8.904;2024-02-04T00:32:37;5.23;;;3.73;;
8714;SDS011;4394;51.208;8.904;2024-02-04T00:35:26;3.47;;;2.80;;
8714;SDS011;4394;51.208;8.904;2024-02-04T00:38:14;4.23;;;2.87;;
8714;SDS011;4394;51.208;8.904;2024-02-04T00:41:03;4.30;;;3.63;;
8714;SDS011;4394;51.208;8.904;2024-02-04T00:43:52;3.50;;;2.90;;
8714;SDS011;4394;51.208;8.904;2024-02-04T00:46:40;3.93;;;2.70;;
8714;SDS011;4394;51.208;8.904;2024-02-04T00:49:28;4.33;;;3.03;;
8714;SDS011;4394;51.208;8.904;2024-02-04T00:52:17;3.60;;;2.77;;
8714;SDS011;4394;51.208;8.904;2024-02-04T00:55:06;3.13;;;2.50;;
8714;SDS011;4394;51.208;8.904;2024-02-04T00:57:54;2.33;;;2.13;;
8714;SDS011;4394;51.208;8.904;2024-02-04T01:00:45;2.87;;;2.23;;
8714;SDS011;4394;51.208;8.904;2024-02-04T01:03:33;2.87;;;2.40;;
8714;SDS011;4394;51.208;8.904;2024-02-04T01:06:21;2.53;;;2.27;;
8714;SDS011;4394;51.208;8.904;2024-02-04T01:09:11;2.93;;;2.33;;
8714;SDS011;4394;51.208;8.904;2024-02-04T01:11:59;2.80;;;2.40;;
8714;SDS011;4394;51.208;8.904;2024-02-04T01:14:47;3.27;;;2.57;;
8714;SDS011;4394;51.208;8.904;2024-02-04T01:17:35;3.47;;;2.40;;
8714;SDS011;4394;51.208;8.904;2024-02-04T01:20:23;3.70;;;2.67;;
8714;SDS011;4394;51.208;8.904;2024-02-04T01:23:11;3.23;;;2.93;;
8714;SDS011;4394;51.208;8.904;2024-02-04T01:26:00;3.83;;;2.80;;
8714;SDS011;4394;51.208;8.904;2024-02-04T01:28:48;3.10;;;2.73;;
8714;SDS011;4394;51.208;8.904;2024-02-04T01:31:36;4.03;;;2.50;;
8714;SDS011;4394;51.208;8.904;2024-02-04T01:34:24;3.50;;;2.83;;
8714;SDS011;4394;51.208;8.904;2024-02-04T01:37:12;3.07;;;2.43;;
8714;SDS011;4394;51.208;8.904;2024-02-04T01:40:00;3.47;;;2.77;;
8714;SDS011;4394;51.208;8.904;2024-02-04T01:42:50;3.33;;;2.63;;
8714;SDS011;4394;51.208;8.904;2024-02-04T01:45:38;4.07;;;3.10;;
8714;SDS011;4394;51.208;8.904;2024-02-04T01:48:26;4.60;;;3.10;;
8714;SDS011;4394;51.208;8.904;2024-02-04T01:51:14;3.93;;;3.27;;
8714;SDS011;4394;51.208;8.904;2024-02-04T01:54:04;4.53;;;3.10;;
8714;SDS011;4394;51.208;8.904;2024-02-04T01:56:54;3.83;;;3.10;;
8714;SDS011;4394;51.208;8.904;2024-02-04T01:59:44;3.50;;;2.90;;
8714;SDS011;4394;51.208;8.904;2024-02-04T02:02:32;3.17;;;2.50;;
8714;SDS011;4394;51.208;8.904;2024-02-04T02:05:23;4.17;;;2.77;;
8714;SDS011;4394;51.208;8.904;2024-02-04T02:08:11;3.83;;;2.83;;
8714;SDS011;4394;51.208;8.904;2024-02-04T02:11:02;2.70;;;2.47;;
8714;SDS011;4394;51.208;8.904;2024-02-04T02:13:57;3.73;;;2.70;;
8714;SDS011;4394;51.208;8.904;2024-02-04T02:16:49;3.10;;;2.10;;
8714;SDS011;4394;51.208;8.904;2024-02-04T02:19:39;2.87;;;2.03;;
8714;SDS011;4394;51.208;8.904;2024-02-04T02:22:39;2.33;;;2.13;;
8714;SDS011;4394;51.208;8.904;2024-02-04T02:25:37;3.30;;;2.40;;
8714;SDS011;4394;51.208;8.904;2024-02-04T02:28:25;2.70;;;2.20;;
8714;SDS011;4394;51.208;8.904;2024-02-04T02:31:13;2.80;;;2.50;;
8714;SDS011;4394;51.208;8.904;2024-02-04T02:34:10;2.60;;;2.10;;
8714;SDS011;4394;51.208;8.904;2024-02-04T02:37:20;2.20;;;1.97;;
8714;SDS011;4394;51.208;8.904;2024-02-04T02:40:16;2.27;;;1.70;;
8714;SDS011;4394;51.208;8.904;2024-02-04T02:43:10;2.13;;;1.93;;
8714;SDS011;4394;51.208;8.904;2024-02-04T02:45:59;2.17;;;1.97;;
8714;SDS011;4394;51.208;8.904;2024-02-04T02:48:48;2.13;;;1.90;;
8714;SDS011;4394;51.208;8.904;2024-02-04T02:51:37;1.97;;;1.60;;
8714;SDS011;4394;51.208;8.904;2024-02-04T02:54:25;1.80;;;1.70;;
8714;SDS011;4394;51.208;8.904;2024-02-04T02:57:13;1.83;;;1.60;;
8714;SDS011;4394;51.208;8.904;2024-02-04T03:00:03;2.60;;;2.20;;
8714;SDS011;4394;51.208;8.904;2024-02-04T03:02:52;2.10;;;1.90;;
8714;SDS011;4394;51.208;8.904;2024-02-04T03:05:40;2.20;;;1.80;;
8714;SDS011;4394;51.208;8.904;2024-02-04T03:08:28;2.10;;;1.70;;
8714;SDS011;4394;51.208;8.904;2024-02-04T03:11:16;2.03;;;1.83;;
8714;SDS011;4394;51.208;8.904;2024-02-04T03:14:05;2.10;;;1.90;;
8714;SDS011;4394;51.208;8.904;2024-02-04T03:16:54;2.87;;;2.33;;
8714;SDS011;4394;51.208;8.904;2024-02-04T03:19:42;1.80;;;1.70;;
8714;SDS011;4394;51.208;8.904;2024-02-04T03:22:30;1.47;;;1.37;;
8714;SDS011;4394;51.208;8.904;2024-02-04T03:25:18;1.90;;;1.70;;
8714;SDS011;4394;51.208;8.904;2024-02-04T03:28:06;1.73;;;1.40;;
8714;SDS011;4394;51.208;8.904;2024-02-04T03:30:54;2.23;;;1.50;;
8714;SDS011;4394;51.208;8.904;2024-02-04T03:33:44;1.87;;;1.40;;
8714;SDS011;4394;51.208;8.904;2024-02-04T03:36:32;1.30;;;1.20;;
8714;SDS011;4394;51.208;8.904;2024-02-04T03:39:20;2.07;;;1.63;;
8714;SDS011;4394;51.208;8.904;2024-02-04T03:42:08;1.33;;;1.23;;
8714;SDS011;4394;51.208;8.904;2024-02-04T03:44:56;2.87;;;1.63;;
8714;SDS011;4394;51.208;8.904;2024-02-04T03:47:44;1.03;;;0.90;;
8714;SDS011;4394;51.208;8.904;2024-02-04T03:50:34;1.87;;;1.20;;
8714;SDS011;4394;51.208;8.904;2024-02-04T03:53:23;0.93;;;0.90;;
8714;SDS011;4394;51.208;8.904;2024-02-04T03:56:11;0.97;;;0.70;;
8714;SDS011;4394;51.208;8.904;2024-02-04T03:58:59;0.83;;;0.83;;
8714;SDS011;4394;51.208;8.904;2024-02-04T04:01:47;1.07;;;1.00;;
8714;SDS011;4394;51.208;8.904;2024-02-04T04:04:36;0.87;;;0.70;;
8714;SDS011;4394;51.208;8.904;2024-02-04T04:07:29;0.47;;;0.47;;
8714;SDS011;4394;51.208;8.904;2024-02-04T04:10:17;0.50;;;0.50;;
8714;SDS011;4394;51.208;8.904;2024-02-04T04:13:05;0.30;;;0.30;;
8714;SDS011;4394;51.208;8.904;2024-02-04T04:15:53;0.67;;;0.30;;
8714;SDS011;4394;51.208;8.904;2024-02-04T04:18:41;0.37;;;0.37;;
8714;SDS011;4394;51.208;8.904;2024-02-04T04:21:30;0.40;;;0.40;;
8714;SDS011;4394;51.208;8.904;2024-02-04T04:24:19;0.20;;;0.20;;
8714;SDS011;4394;51.208;8.904;2024-02-04T04:27:09;0.40;;;0.40;;
8714;SDS011;4394;51.208;8.904;2024-02-04T04:29:57;0.23;;;0.13;;
8714;SDS011;4394;51.208;8.904;2024-02-04T04:32:45;0.20;;;0.20;;
8714;SDS011;4394;51.208;8.904;2024-02-04T04:35:33;0.20;;;0.20;;
8714;SDS011;4394;51.208;8.904;2024-02-04T04:38:21;0.23;;;0.20;;
8714;SDS011;4394;51.208;8.904;2024-02-04T04:41:10;0.30;;;0.30;;
8714;SDS011;4394;51.208;8.904;2024-02-04T04:43:58;0.30;;;0.30;;
8714;SDS011;4394;51.208;8.904;2024-02-04T04:46:46;0.30;;;0.30;;
8714;SDS011;4394;51.208;8.904;2024-02-04T04:49:35;0.30;;;0.20;;
8714;SDS011;4394;51.208;8.904;2024-02-04T04:52:23;0.50;;;0.40;;
8714;SDS011;4394;51.208;8.904;2024-02-04T04:55:11;0.53;;;0.20;;
8714;SDS011;4394;51.208;8.904;2024-02-04T04:58:00;0.20;;;0.20;;
8714;SDS011;4394;51.208;8.904;2024-02-04T05:00:49;1.60;;;0.20;;
8714;SDS011;4394;51.208;8.904;2024-02-04T05:03:38;0.70;;;0.50;;
8714;SDS011;4394;51.208;8.904;2024-02-04T05:06:27;0.40;;;0.40;;
8714;SDS011;4394;51.208;8.904;2024-02-04T05:09:15;0.50;;;0.50;;
8714;SDS011;4394;51.208;8.904;2024-02-04T05:12:04;0.50;;;0.50;;
8714;SDS011;4394;51.208;8.904;2024-02-04T05:14:55;0.70;;;0.63;;
8714;SDS011;4394;51.208;8.904;2024-02-04T05:17:43;0.50;;;0.50;;
8714;SDS011;4394;51.208;8.904;2024-02-04T05:20:31;1.30;;;1.00;;
8714;SDS011;4394;51.208;8.904;2024-02-04T05:23:19;1.00;;;0.90;;
8714;SDS011;4394;51.208;8.904;2024-02-04T05:26:07;1.10;;;0.97;;
8714;SDS011;4394;51.208;8.904;2024-02-04T05:28:55;1.23;;;1.13;;
8714;SDS011;4394;51.208;8.904;2024-02-04T05:31:45;1.43;;;1.20;;
8714;SDS011;4394;51.208;8.904;2024-02-04T05:34:33;1.80;;;1.20;;
8714;SDS011;4394;51.208;8.904;2024-02-04T05:37:21;1.77;;;1.33;;
8714;SDS011;4394;51.208;8.904;2024-02-04T05:40:10;3.27;;;2.17;;
8714;SDS011;4394;51.208;8.904;2024-02-04T05:43:00;2.77;;;1.80;;
8714;SDS011;4394;51.208;8.904;2024-02-04T05:45:56;3.03;;;2.40;;
8714;SDS011;4394;51.208;8.904;2024-02-04T05:48:46;2.57;;;1.87;;
8714;SDS011;4394;51.208;8.904;2024-02-04T05:51:37;1.93;;;1.67;;
8714;SDS011;4394;51.208;8.904;2024-02-04T05:54:27;2.17;;;1.90;;
8714;SDS011;4394;51.208;8.904;2024-02-04T05:57:15;2.47;;;1.90;;
8714;SDS011;4394;51.208;8.904;2024-02-04T06:00:03;1.97;;;1.77;;
8714;SDS011;4394;51.208;8.904;2024-02-04T06:02:52;1.90;;;1.70;;
8714;SDS011;4394;51.208;8.904;2024-02-04T06:05:42;2.10;;;1.73;;
8714;SDS011;4394;51.208;8.904;2024-02-04T06:08:30;2.20;;;1.90;;
8714;SDS011;4394;51.208;8.904;2024-02-04T06:11:18;1.77;;;1.53;;
8714;SDS011;4394;51.208;8.904;2024-02-04T06:14:06;1.83;;;1.33;;
8714;SDS011;4394;51.208;8.904;2024-02-04T06:16:54;2.23;;;1.67;;
8714;SDS011;4394;51.208;8.904;2024-02-04T06:19:42;3.00;;;1.47;;
8714;SDS011;4394;51.208;8.904;2024-02-04T06:22:31;2.13;;;1.90;;
8714;SDS011;4394;51.208;8.904;2024-02-04T06:25:22;1.30;;;1.20;;
8714;SDS011;4394;51.208;8.904;2024-02-04T06:28:10;1.20;;;1.10;;
8714;SDS011;4394;51.208;8.904;2024-02-04T06:30:58;1.23;;;1.13;;
8714;SDS011;4394;51.208;8.904;2024-02-04T06:33:47;1.43;;;1.00;;
8714;SDS011;4394;51.208;8.904;2024-02-04T06:36:36;1.13;;;1.03;;
8714;SDS011;4394;51.208;8.904;2024-02-04T06:39:25;1.07;;;0.83;;
8714;SDS011;4394;51.208;8.904;2024-02-04T06:42:13;0.90;;;0.73;;
8714;SDS011;4394;51.208;8.904;2024-02-04T06:45:01;0.87;;;0.77;;
8714;SDS011;4394;51.208;8.904;2024-02-04T06:47:50;1.10;;;0.93;;
8714;SDS011;4394;51.208;8.904;2024-02-04T06:50:38;0.93;;;0.80;;
8714;SDS011;4394;51.208;8.904;2024-02-04T06:53:26;3.27;;;1.07;;
8714;SDS011;4394;51.208;8.904;2024-02-04T06:56:15;1.60;;;1.10;;
8714;SDS011;4394;51.208;8.904;2024-02-04T06:59:03;1.30;;;1.20;;
8714;SDS011;4394;51.208;8.904;2024-02-04T07:01:51;1.60;;;1.50;;
8714;SDS011;4394;51.208;8.904;2024-02-04T07:04:40;1.73;;;1.53;;
8714;SDS011;4394;51.208;8.904;2024-02-04T07:07:28;1.50;;;1.40;;
8714;SDS011;4394;51.208;8.904;2024-02-04T07:10:16;2.50;;;1.67;;
8714;SDS011;4394;51.208;8.904;2024-02-04T07:13:06;1.90;;;1.70;;
8714;SDS011;4394;51.208;8.904;2024-02-04T07:15:55;2.43;;;1.63;;
8714;SDS011;4394;51.208;8.904;2024-02-04T07:18:44;2.87;;;2.50;;
8714;SDS011;4394;51.208;8.904;2024-02-04T07:21:32;2.20;;;1.90;;
8714;SDS011;4394;51.208;8.904;2024-02-04T07:24:21;2.50;;;1.80;;
8714;SDS011;4394;51.208;8.904;2024-02-04T07:27:09;2.40;;;2.20;;
8714;SDS011;4394;51.208;8.904;2024-02-04T07:29:58;3.00;;;2.70;;
8714;SDS011;4394;51.208;8.904;2024-02-04T07:32:46;3.00;;;2.30;;
8714;SDS011;4394;51.208;8.904;2024-02-04T07:35:34;2.90;;;2.30;;
8714;SDS011;4394;51.208;8.904;2024-02-04T07:38:22;3.67;;;2.30;;
8714;SDS011;4394;51.208;8.904;2024-02-04T07:41:13;3.33;;;2.67;;
8714;SDS011;4394;51.208;8.904;2024-02-04T07:44:01;3.30;;;2.40;;
8714;SDS011;4394;51.208;8.904;2024-02-04T07:46:51;3.10;;;2.80;;
8714;SDS011;4394;51.208;8.904;2024-02-04T07:49:39;3.77;;;3.00;;
8714;SDS011;4394;51.208;8.904;2024-02-04T07:52:27;4.40;;;3.40;;
8714;SDS011;4394;51.208;8.904;2024-02-04T07:55:15;4.50;;;3.20;;
8714;SDS011;4394;51.208;8.904;2024-02-04T07:58:03;4.10;;;3.30;;
8714;SDS011;4394;51.208;8.904;2024-02-04T08:00:51;4.90;;;3.20;;
8714;SDS011;4394;51.208;8.904;2024-02-04T08:03:41;5.60;;;3.40;;
8714;SDS011;4394;51.208;8.904;2024-02-04T08:06:33;4.30;;;3.40;;
8714;SDS011;4394;51.208;8.904;2024-02-04T08:09:22;4.23;;;3.13;;
8714;SDS011;4394;51.208;8.904;2024-02-04T08:12:10;4.17;;;3.13;;
8714;SDS011;4394;51.208;8.904;2024-02-04T08:14:58;4.20;;;2.80;;
8714;SDS011;4394;51.208;8.904;2024-02-04T08:17:46;3.73;;;3.20;;
8714;SDS011;4394;51.208;8.904;2024-02-04T08:20:36;3.43;;;3.13;;
8714;SDS011;4394;51.208;8.904;2024-02-04T08:23:24;5.67;;;3.40;;
8714;SDS011;4394;51.208;8.904;2024-02-04T08:26:12;3.40;;;3.10;;
8714;SDS011;4394;51.208;8.904;2024-02-04T08:29:00;3.40;;;3.00;;
8714;SDS011;4394;51.208;8.904;2024-02-04T08:31:48;4.27;;;3.07;;
8714;SDS011;4394;51.208;8.904;2024-02-04T08:34:36;3.63;;;2.97;;
8714;SDS011;4394;51.208;8.904;2024-02-04T08:37:26;5.03;;;3.23;;
8714;SDS011;4394;51.208;8.904;2024-02-04T08:40:14;3.70;;;2.53;;
8714;SDS011;4394;51.208;8.904;2024-02-04T08:43:02;4.17;;;2.70;;
8714;SDS011;4394;51.208;8.904;2024-02-04T08:45:51;3.10;;;2.57;;
8714;SDS011;4394;51.208;8.904;2024-02-04T08:48:39;3.60;;;2.90;;
8714;SDS011;4394;51.208;8.904;2024-02-04T08:51:29;3.87;;;2.70;;
8714;SDS011;4394;51.208;8.904;2024-02-04T08:54:19;7.23;;;3.13;;
8714;SDS011;4394;51.208;8.904;2024-02-04T08:57:07;3.50;;;2.60;;
8714;SDS011;4394;51.208;8.904;2024-02-04T08:59:55;2.50;;;1.90;;
8714;SDS011;4394;51.208;8.904;2024-02-04T09:02:43;2.87;;;2.17;;
8714;SDS011;4394;51.208;8.904;2024-02-04T09:05:33;2.27;;;1.83;;
8714;SDS011;4394;51.208;8.904;2024-02-04T09:08:21;1.40;;;1.13;;
8714;SDS011;4394;51.208;8.904;2024-02-04T09:11:10;1.83;;;1.40;;
8714;SDS011;4394;51.208;8.904;2024-02-04T09:14:05;2.30;;;1.63;;
8714;SDS011;4394;51.208;8.904;2024-02-04T09:16:53;2.30;;;1.37;;
8714;SDS011;4394;51.208;8.904;2024-02-04T09:19:41;1.57;;;1.40;;
8714;SDS011;4394;51.208;8.904;2024-02-04T09:22:29;1.70;;;1.10;;
8714;SDS011;4394;51.208;8.904;2024-02-04T09:25:18;1.20;;;1.00;;
8714;SDS011;4394;51.208;8.904;2024-02-04T09:28:07;1.13;;;1.03;;
8714;SDS011;4394;51.208;8.904;2024-02-04T09:30:56;0.70;;;0.70;;
8714;SDS011;4394;51.208;8.904;2024-02-04T09:33:44;1.00;;;0.90;;
8714;SDS011;4394;51.208;8.904;2024-02-04T09:36:33;0.93;;;0.83;;
8714;SDS011;4394;51.208;8.904;2024-02-04T09:39:21;0.67;;;0.50;;
8714;SDS011;4394;51.208;8.904;2024-02-04T09:42:09;0.63;;;0.60;;
8714;SDS011;4394;51.208;8.904;2024-02-04T09:45:05;0.73;;;0.73;;
8714;SDS011;4394;51.208;8.904;2024-02-04T09:47:53;0.70;;;0.60;;
8714;SDS011;4394;51.208;8.904;2024-02-04T09:50:42;1.53;;;0.60;;
8714;SDS011;4394;51.208;8.904;2024-02-04T09:53:31;0.90;;;0.50;;
8714;SDS011;4394;51.208;8.904;2024-02-04T09:56:22;0.60;;;0.50;;
8714;SDS011;4394;51.208;8.904;2024-02-04T09:59:12;0.60;;;0.40;;
8714;SDS011;4394;51.208;8.904;2024-02-04T10:02:02;0.30;;;0.30;;
8714;SDS011;4394;51.208;8.904;2024-02-04T10:04:52;0.30;;;0.30;;
8714;SDS011;4394;51.208;8.904;2024-02-04T10:07:40;0.77;;;0.40;;
8714;SDS011;4394;51.208;8.904;2024-02-04T10:10:29;0.30;;;0.20;;
8714;SDS011;4394;51.208;8.904;2024-02-04T10:13:19;0.20;;;0.20;;
8714;SDS011;4394;51.208;8.904;2024-02-04T10:16:07;0.30;;;0.30;;
8714;SDS011;4394;51.208;8.904;2024-02-04T10:18:56;0.23;;;0.23;;
8714;SDS011;4394;51.208;8.904;2024-02-04T10:21:44;0.30;;;0.30;;
8714;SDS011;4394;51.208;8.904;2024-02-04T10:24:33;1.20;;;0.30;;
8714;SDS011;4394;51.208;8.904;2024-02-04T10:27:21;0.47;;;0.17;;
8714;SDS011;4394;51.208;8.904;2024-02-04T10:30:21;0.20;;;0.20;;
8714;SDS011;4394;51.208;8.904;2024-02-04T10:33:09;0.43;;;0.27;;
8714;SDS011;4394;51.208;8.904;2024-02-04T10:35:59;0.60;;;0.40;;
8714;SDS011;4394;51.208;8.904;2024-02-04T10:38:47;0.30;;;0.30;;
8714;SDS011;4394;51.208;8.904;2024-02-04T10:41:35;0.67;;;0.40;;
8714;SDS011;4394;51.208;8.904;2024-02-04T10:44:35;0.50;;;0.30;;
8714;SDS011;4394;51.208;8.904;2024-02-04T10:47:26;0.40;;;0.30;;
8714;SDS011;4394;51.208;8.904;2024-02-04T10:50:19;0.33;;;0.30;;
8714;SDS011;4394;51.208;8.904;2024-02-04T10:53:10;1.13;;;0.30;;
8714;SDS011;4394;51.208;8.904;2024-02-04T10:56:01;0.57;;;0.40;;
8714;SDS011;4394;51.208;8.904;2024-02-04T10:58:53;0.67;;;0.40;;
8714;SDS011;4394;51.208;8.904;2024-02-04T11:01:42;0.20;;;0.20;;
8714;SDS011;4394;51.208;8.904;2024-02-04T11:04:35;0.10;;;0.10;;
8714;SDS011;4394;51.208;8.904;2024-02-04T11:07:24;0.80;;;0.30;;
8714;SDS011;4394;51.208;8.904;2024-02-04T11:10:15;0.40;;;0.20;;
8714;SDS011;4394;51.208;8.904;2024-02-04T11:13:05;0.60;;;0.60;;
8714;SDS011;4394;51.208;8.904;2024-02-04T11:15:56;0.90;;;0.43;;
8714;SDS011;4394;51.208;8.904;2024-02-04T11:18:58;0.97;;;0.60;;
8714;SDS011;4394;51.208;8.904;2024-02-04T11:22:04;0.70;;;0.70;;
8714;SDS011;4394;51.208;8.904;2024-02-04T11:25:13;0.77;;;0.70;;
8714;SDS011;4394;51.208;8.904;2024-02-04T11:28:20;1.07;;;0.93;;
8714;SDS011;4394;51.208;8.904;2024-02-04T11:31:13;1.10;;;0.80;;
8714;SDS011;4394;51.208;8.904;2024-02-04T11:34:03;1.00;;;0.93;;
8714;SDS011;4394;51.208;8.904;2024-02-04T11:36:53;1.67;;;1.00;;
8714;SDS011;4394;51.208;8.904;2024-02-04T11:39:47;1.20;;;1.10;;
8714;SDS011;4394;51.208;8.904;2024-02-04T11:42:37;1.63;;;1.00;;
8714;SDS011;4394;51.208;8.904;2024-02-04T11:45:26;0.97;;;0.87;;
8714;SDS011;4394;51.208;8.904;2024-02-04T11:48:14;1.30;;;1.00;;
8714;SDS011;4394;51.208;8.904;2024-02-04T11:51:03;1.73;;;0.90;;
8714;SDS011;4394;51.208;8.904;2024-02-04T11:53:54;0.63;;;0.63;;
8714;SDS011;4394;51.208;8.904;2024-02-04T11:56:43;0.90;;;0.50;;
8714;SDS011;4394;51.208;8.904;2024-02-04T11:59:33;1.07;;;0.87;;
8714;SDS011;4394;51.208;8.904;2024-02-04T12:02:21;1.23;;;0.60;;
8714;SDS011;4394;51.208;8.904;2024-02-04T12:05:09;1.10;;;0.80;;
8714;SDS011;4394;51.208;8.904;2024-02-04T12:07:58;1.20;;;1.10;;
8714;SDS011;4394;51.208;8.904;2024-02-04T12:10:47;0.90;;;0.90;;
8714;SDS011;4394;51.208;8.904;2024-02-04T12:13:35;0.63;;;0.63;;
8714;SDS011;4394;51.208;8.904;2024-02-04T12:16:29;1.07;;;0.80;;
8714;SDS011;4394;51.208;8.904;2024-02-04T12:19:18;0.83;;;0.83;;
8714;SDS011;4394;51.208;8.904;2024-02-04T12:22:07;0.60;;;0.53;;
8714;SDS011;4394;51.208;8.904;2024-02-04T12:24:56;0.93;;;0.67;;
8714;SDS011;4394;51.208;8.904;2024-02-04T12:27:44;7.00;;;0.83;;
8714;SDS011;4394;51.208;8.904;2024-02-04T12:30:34;1.43;;;1.00;;
8714;SDS011;4394;51.208;8.904;2024-02-04T12:33:24;1.27;;;1.10;;
8714;SDS011;4394;51.208;8.904;2024-02-04T12:36:13;1.37;;;1.27;;
8714;SDS011;4394;51.208;8.904;2024-02-04T12:39:02;1.47;;;1.37;;
8714;SDS011;4394;51.208;8.904;2024-02-04T12:41:51;1.50;;;1.40;;
8714;SDS011;4394;51.208;8.904;2024-02-04T12:44:39;2.27;;;1.63;;
8714;SDS011;4394;51.208;8.904;2024-02-04T12:47:27;1.83;;;1.50;;
8714;SDS011;4394;51.208;8.904;2024-02-04T12:50:17;1.20;;;1.10;;
8714;SDS011;4394;51.208;8.904;2024-02-04T12:53:06;1.27;;;1.10;;
8714;SDS011;4394;51.208;8.904;2024-02-04T12:55:58;1.10;;;1.00;;
8714;SDS011;4394;51.208;8.904;2024-02-04T12:58:46;1.20;;;1.10;;
8714;SDS011;4394;51.208;8.904;2024-02-04T13:01:35;1.20;;;1.10;;
8714;SDS011;4394;51.208;8.904;2024-02-04T13:04:23;2.27;;;1.03;;
8714;SDS011;4394;51.208;8.904;2024-02-04T13:07:13;0.60;;;0.60;;
8714;SDS011;4394;51.208;8.904;2024-02-04T13:10:03;0.80;;;0.80;;
8714;SDS011;4394;51.208;8.904;2024-02-04T13:12:59;0.60;;;0.60;;
8714;SDS011;4394;51.208;8.904;2024-02-04T13:15:48;0.80;;;0.80;;
8714;SDS011;4394;51.208;8.904;2024-02-04T13:18:36;1.00;;;0.90;;
8714;SDS011;4394;51.208;8.904;2024-02-04T13:21:24;0.60;;;0.60;;
8714;SDS011;4394;51.208;8.904;2024-02-04T13:24:13;0.60;;;0.60;;
8714;SDS011;4394;51.208;8.904;2024-02-04T13:27:02;0.80;;;0.60;;
8714;SDS011;4394;51.208;8.904;2024-02-04T13:29:52;0.43;;;0.43;;
8714;SDS011;4394;51.208;8.904;2024-02-04T13:32:40;1.87;;;0.77;;
8714;SDS011;4394;51.208;8.904;2024-02-04T13:35:30;0.60;;;0.60;;
8714;SDS011;4394;51.208;8.904;2024-02-04T13:38:18;0.80;;;0.60;;
8714;SDS011;4394;51.208;8.904;2024-02-04T13:41:08;0.50;;;0.40;;
8714;SDS011;4394;51.208;8.904;2024-02-04T13:43:56;1.03;;;0.40;;
8714;SDS011;4394;51.208;8.904;2024-02-04T13:46:44;0.50;;;0.50;;
8714;SDS011;4394;51.208;8.904;2024-02-04T13:49:33;0.43;;;0.43;;
8714;SDS011;4394;51.208;8.904;2024-02-04T13:52:21;0.50;;;0.50;;
8714;SDS011;4394;51.208;8.904;2024-02-04T13:55:09;0.50;;;0.50;;
8714;SDS011;4394;51.208;8.904;2024-02-04T13:57:58;1.13;;;0.30;;
8714;SDS011;4394;51.208;8.904;2024-02-04T14:00:47;0.40;;;0.40;;
8714;SDS011;4394;51.208;8.904;2024-02-04T14:03:35;0.40;;;0.40;;
8714;SDS011;4394;51.208;8.904;2024-02-04T14:06:23;0.50;;;0.43;;
8714;SDS011;4394;51.208;8.904;2024-02-04T14:09:11;0.30;;;0.30;;
8714;SDS011;4394;51.208;8.904;2024-02-04T14:12:01;0.60;;;0.60;;
8714;SDS011;4394;51.208;8.904;2024-02-04T14:14:51;0.60;;;0.60;;
8714;SDS011;4394;51.208;8.904;2024-02-04T14:17:39;0.50;;;0.50;;
8714;SDS011;4394;51.208;8.904;2024-02-04T14:20:27;0.30;;;0.30;;
8714;SDS011;4394;51.208;8.904;2024-02-04T14:23:15;0.37;;;0.37;;
8714;SDS011;4394;51.208;8.904;2024-02-04T14:26:03;0.30;;;0.30;;
8714;SDS011;4394;51.208;8.904;2024-02-04T14:28:54;0.30;;;0.30;;
8714;SDS011;4394;51.208;8.904;2024-02-04T14:31:43;0.60;;;0.50;;
8714;SDS011;4394;51.208;8.904;2024-02-04T14:34:32;0.50;;;0.43;;
8714;SDS011;4394;51.208;8.904;2024-02-04T14:37:20;0.53;;;0.50;;
8714;SDS011;4394;51.208;8.904;2024-02-04T14:40:10;0.20;;;0.20;;
8714;SDS011;4394;51.208;8.904;2024-02-04T14:42:59;1.27;;;0.40;;
8714;SDS011;4394;51.208;8.904;2024-02-04T14:45:48;0.93;;;0.30;;
8714;SDS011;4394;51.208;8.904;2024-02-04T14:48:38;2.60;;;0.37;;
8714;SDS011;4394;51.208;8.904;2024-02-04T14:51:29;0.20;;;0.20;;
8714;SDS011;4394;51.208;8.904;2024-02-04T14:54:18;0.30;;;0.30;;
8714;SDS011;4394;51.208;8.904;2024-02-04T14:57:06;0.30;;;0.30;;
8714;SDS011;4394;51.208;8.904;2024-02-04T14:59:54;0.40;;;0.40;;
8714;SDS011;4394;51.208;8.904;2024-02-04T15:02:42;0.30;;;0.30;;
8714;SDS011;4394;51.208;8.904;2024-02-04T15:05:32;0.20;;;0.20;;
8714;SDS011;4394;51.208;8.904;2024-02-04T15:08:20;0.10;;;0.10;;
8714;SDS011;4394;51.208;8.904;2024-02-04T15:11:09;0.40;;;0.20;;
8714;SDS011;4394;51.208;8.904;2024-02-04T15:13:57;0.33;;;0.20;;
8714;SDS011;4394;51.208;8.904;2024-02-04T15:16:46;0.60;;;0.20;;
8714;SDS011;4394;51.208;8.904;2024-02-04T15:19:35;0.30;;;0.30;;
8714;SDS011;4394;51.208;8.904;2024-02-04T15:22:25;0.33;;;0.30;;
8714;SDS011;4394;51.208;8.904;2024-02-04T15:25:14;2.23;;;1.13;;
8714;SDS011;4394;51.208;8.904;2024-02-04T15:28:04;0.10;;;0.10;;
8714;SDS011;4394;51.208;8.904;2024-02-04T15:30:54;0.30;;;0.30;;
8714;SDS011;4394;51.208;8.904;2024-02-04T15:33:43;0.20;;;0.20;;
8714;SDS011;4394;51.208;8.904;2024-02-04T15:36:32;1.30;;;0.30;;
8714;SDS011;4394;51.208;8.904;2024-02-04T15:39:24;0.27;;;0.20;;
8714;SDS011;4394;51.208;8.904;2024-02-04T15:42:12;0.10;;;0.10;;
8714;SDS011;4394;51.208;8.904;2024-02-04T15:45:00;0.20;;;0.10;;
8714;SDS011;4394;51.208;8.904;2024-02-04T15:47:48;0.13;;;0.13;;
8714;SDS011;4394;51.208;8.904;2024-02-04T15:50:39;0.20;;;0.20;;
8714;SDS011;4394;51.208;8.904;2024-02-04T15:53:28;0.30;;;0.20;;
8714;SDS011;4394;51.208;8.904;2024-02-04T15:56:18;0.40;;;0.27;;
8714;SDS011;4394;51.208;8.904;2024-02-04T15:59:08;1.03;;;0.20;;
8714;SDS011;4394;51.208;8.904;2024-02-04T16:01:57;0.30;;;0.20;;
8714;SDS011;4394;51.208;8.904;2024-02-04T16:04:45;0.90;;;0.20;;
8714;SDS011;4394;51.208;8.904;2024-02-04T16:07:37;0.60;;;0.60;;
8714;SDS011;4394;51.208;8.904;2024-02-04T16:10:25;0.90;;;0.57;;
8714;SDS011;4394;51.208;8.904;2024-02-04T16:13:15;0.60;;;0.60;;
8714;SDS011;4394;51.208;8.904;2024-02-04T16:16:03;0.30;;;0.30;;
8714;SDS011;4394;51.208;8.904;2024-02-04T16:18:55;0.30;;;0.30;;
8714;SDS011;4394;51.208;8.904;2024-02-04T16:21:44;0.60;;;0.60;;
8714;SDS011;4394;51.208;8.904;2024-02-04T16:24:32;0.40;;;0.40;;
8714;SDS011;4394;51.208;8.904;2024-02-04T16:27:24;0.40;;;0.40;;
8714;SDS011;4394;51.208;8.904;2024-02-04T16:30:14;2.17;;;1.60;;
8714;SDS011;4394;51.208;8.904;2024-02-04T16:33:05;0.80;;;0.70;;
8714;SDS011;4394;51.208;8.904;2024-02-04T16:35:53;0.50;;;0.50;;
8714;SDS011;4394;51.208;8.904;2024-02-04T16:38:42;0.73;;;0.70;;
8714;SDS011;4394;51.208;8.904;2024-02-04T16:41:31;0.77;;;0.70;;
8714;SDS011;4394;51.208;8.904;2024-02-04T16:44:19;0.80;;;0.80;;
8714;SDS011;4394;51.208;8.904;2024-02-04T16:47:08;1.37;;;1.03;;
8714;SDS011;4394;51.208;8.904;2024-02-04T16:49:56;2.57;;;1.13;;
8714;SDS011;4394;51.208;8.904;2024-02-04T16:52:45;1.97;;;0.90;;
8714;SDS011;4394;51.208;8.904;2024-02-04T16:55:33;1.13;;;1.00;;
8714;SDS011;4394;51.208;8.904;2024-02-04T16:58:21;1.57;;;1.20;;
8714;SDS011;4394;51.208;8.904;2024-02-04T17:01:09;0.80;;;0.80;;
8714;SDS011;4394;51.208;8.904;2024-02-04T17:03:59;1.03;;;0.93;;
8714;SDS011;4394;51.208;8.904;2024-02-04T17:06:48;1.30;;;1.20;;
8714;SDS011;4394;51.208;8.904;2024-02-04T17:09:37;1.23;;;1.10;;
8714;SDS011;4394;51.208;8.904;2024-02-04T17:12:25;1.30;;;1.20;;
8714;SDS011;4394;51.208;8.904;2024-02-04T17:15:16;1.43;;;1.33;;
8714;SDS011;4394;51.208;8.904;2024-02-04T17:18:04;1.57;;;1.40;;
8714;SDS011;4394;51.208;8.904;2024-02-04T17:21:03;1.67;;;1.57;;
8714;SDS011;4394;51.208;8.904;2024-02-04T17:23:57;1.90;;;1.70;;
8714;SDS011;4394;51.208;8.904;2024-02-04T17:26:58;1.43;;;1.33;;
8714;SDS011;4394;51.208;8.904;2024-02-04T17:29:52;1.53;;;1.43;;
8714;SDS011;4394;51.208;8.904;2024-02-04T17:32:44;2.07;;;1.73;;